sensor_id;sensor_type;location;lat;lon;timestamp;pressure;altitude;pressure_sealevel;temperature;humidity
57668;BME280;43499;52.366;12.912;2023-04-19T00:00:32;102443.88;;;5.63;74.18
57668;BME280;43499;52.366;12.912;2023-04-19T00:01:35;102421.28;;;5.56;73.83
57668;BME280;43499;52.366;12.912;2023-04-19T00:02:36;102430.25;;;5.58;73.89
57668;BME280;43499;52.366;12.912;2023-04-19T00:03:37;102447.06;;;5.67;74.56
57668;BME280;43499;52.366;12.912;2023-04-19T00:04:38;102436.59;;;5.60;73.74
57668;BME280;43499;52.366;12.912;2023-04-19T00:05:40;102439.19;;;5.60;73.83
57668;BME280;43499;52.366;12.912;2023-04-19T00:06:41;102427.97;;;5.54;74.23
57668;BME280;43499;52.366;12.912;2023-04-19T00:07:42;102429.31;;;5.58;73.92
57668;BME280;43499;52.366;12.912;2023-04-19T00:08:43;102436.44;;;5.66;73.47
57668;BME280;43499;52.366;12.912;2023-04-19T00:09:44;102442.81;;;5.68;73.40
57668;BME280;43499;52.366;12.912;2023-04-19T00:10:45;102429.91;;;5.62;73.25
57668;BME280;43499;52.366;12.912;2023-04-19T00:11:46;102416.88;;;5.62;73.39
57668;BME280;43499;52.366;12.912;2023-04-19T00:12:47;102433.69;;;5.71;73.71
57668;BME280;43499;52.366;12.912;2023-04-19T00:13:48;102420.56;;;5.64;73.34
57668;BME280;43499;52.366;12.912;2023-04-19T00:14:49;102419.31;;;5.68;73.59
57668;BME280;43499;52.366;12.912;2023-04-19T00:15:50;102426.59;;;5.70;73.41
57668;BME280;43499;52.366;12.912;2023-04-19T00:16:51;102418.63;;;5.76;73.26
57668;BME280;43499;52.366;12.912;2023-04-19T00:17:52;102434.31;;;5.83;73.58
57668;BME280;43499;52.366;12.912;2023-04-19T00:18:53;102432.06;;;5.79;72.93
57668;BME280;43499;52.366;12.912;2023-04-19T00:19:55;102426.63;;;5.78;72.70
57668;BME280;43499;52.366;12.912;2023-04-19T00:20:56;102424.59;;;5.82;73.26
57668;BME280;43499;52.366;12.912;2023-04-19T00:21:57;102425.97;;;5.86;73.42
57668;BME280;43499;52.366;12.912;2023-04-19T00:22:58;102414.72;;;5.80;73.03
57668;BME280;43499;52.366;12.912;2023-04-19T00:24:01;102427.44;;;5.84;73.29
57668;BME280;43499;52.366;12.912;2023-04-19T00:25:03;102430.22;;;5.85;73.61
57668;BME280;43499;52.366;12.912;2023-04-19T00:26:04;102432.28;;;5.88;73.00
57668;BME280;43499;52.366;12.912;2023-04-19T00:27:05;102419.78;;;5.85;72.79
57668;BME280;43499;52.366;12.912;2023-04-19T00:28:06;102406.50;;;5.77;72.78
57668;BME280;43499;52.366;12.912;2023-04-19T00:29:07;102427.78;;;5.87;72.60
57668;BME280;43499;52.366;12.912;2023-04-19T00:30:09;102420.13;;;5.81;71.63
57668;BME280;43499;52.366;12.912;2023-04-19T00:31:10;102415.28;;;5.77;71.78
57668;BME280;43499;52.366;12.912;2023-04-19T00:32:11;102424.59;;;5.82;72.25
57668;BME280;43499;52.366;12.912;2023-04-19T00:33:13;102425.34;;;5.81;72.15
57668;BME280;43499;52.366;12.912;2023-04-19T00:34:14;102404.63;;;5.76;72.51
57668;BME280;43499;52.366;12.912;2023-04-19T00:35:15;102411.34;;;5.74;71.61
57668;BME280;43499;52.366;12.912;2023-04-19T00:36:16;102421.03;;;5.75;71.30
57668;BME280;43499;52.366;12.912;2023-04-19T00:37:17;102411.84;;;5.71;71.29
57668;BME280;43499;52.366;12.912;2023-04-19T00:38:18;102419.38;;;5.82;71.85
57668;BME280;43499;52.366;12.912;2023-04-19T00:39:19;102408.91;;;5.75;71.69
57668;BME280;43499;52.366;12.912;2023-04-19T00:40:20;102425.25;;;5.94;71.64
57668;BME280;43499;52.366;12.912;2023-04-19T00:41:21;102421.50;;;5.92;71.32
57668;BME280;43499;52.366;12.912;2023-04-19T00:42:22;102407.47;;;5.84;71.43
57668;BME280;43499;52.366;12.912;2023-04-19T00:43:23;102420.94;;;5.95;70.88
57668;BME280;43499;52.366;12.912;2023-04-19T00:44:24;102380.78;;;5.72;69.91
57668;BME280;43499;52.366;12.912;2023-04-19T00:45:25;102406.56;;;5.84;70.41
57668;BME280;43499;52.366;12.912;2023-04-19T00:46:26;102417.19;;;5.85;70.67
57668;BME280;43499;52.366;12.912;2023-04-19T00:47:27;102413.06;;;5.80;70.26
57668;BME280;43499;52.366;12.912;2023-04-19T00:48:28;102415.06;;;5.76;69.64
57668;BME280;43499;52.366;12.912;2023-04-19T00:49:30;102410.78;;;5.76;69.91
57668;BME280;43499;52.366;12.912;2023-04-19T00:50:31;102407.84;;;5.80;69.33
57668;BME280;43499;52.366;12.912;2023-04-19T00:51:33;102418.66;;;5.83;69.41
57668;BME280;43499;52.366;12.912;2023-04-19T00:52:34;102417.56;;;5.89;69.19
57668;BME280;43499;52.366;12.912;2023-04-19T00:53:35;102416.09;;;5.91;68.86
57668;BME280;43499;52.366;12.912;2023-04-19T00:54:36;102412.53;;;5.90;68.55
57668;BME280;43499;52.366;12.912;2023-04-19T00:55:38;102412.53;;;5.90;67.83
57668;BME280;43499;52.366;12.912;2023-04-19T00:56:39;102405.25;;;5.87;67.68
57668;BME280;43499;52.366;12.912;2023-04-19T00:57:41;102410.88;;;5.91;67.92
57668;BME280;43499;52.366;12.912;2023-04-19T00:58:44;102415.53;;;5.86;67.06
57668;BME280;43499;52.366;12.912;2023-04-19T00:59:45;102412.09;;;5.80;67.00
57668;BME280;43499;52.366;12.912;2023-04-19T01:00:46;102404.63;;;5.76;66.73
57668;BME280;43499;52.366;12.912;2023-04-19T01:01:47;102405.22;;;5.80;66.71
57668;BME280;43499;52.366;12.912;2023-04-19T01:02:49;102405.25;;;5.87;66.51
57668;BME280;43499;52.366;12.912;2023-04-19T01:03:53;102398.91;;;5.85;66.49
57668;BME280;43499;52.366;12.912;2023-04-19T01:04:55;102385.44;;;5.75;65.78
57668;BME280;43499;52.366;12.912;2023-04-19T01:05:56;102409.53;;;5.87;66.26
57668;BME280;43499;52.366;12.912;2023-04-19T01:06:57;102409.53;;;5.87;66.31
57668;BME280;43499;52.366;12.912;2023-04-19T01:07:58;102407.47;;;5.84;66.02
57668;BME280;43499;52.366;12.912;2023-04-19T01:08:59;102399.06;;;5.80;65.66
57668;BME280;43499;52.366;12.912;2023-04-19T01:10:00;102409.91;;;5.83;65.83
57668;BME280;43499;52.366;12.912;2023-04-19T01:11:01;102409.69;;;5.81;64.53
57668;BME280;43499;52.366;12.912;2023-04-19T01:12:02;102407.47;;;5.84;64.53
57668;BME280;43499;52.366;12.912;2023-04-19T01:13:03;102407.88;;;5.87;64.46
57668;BME280;43499;52.366;12.912;2023-04-19T01:14:04;102395.72;;;5.81;64.25
57668;BME280;43499;52.366;12.912;2023-04-19T01:15:06;102406.41;;;5.90;64.15
57668;BME280;43499;52.366;12.912;2023-04-19T01:16:07;102413.84;;;5.94;64.21
57668;BME280;43499;52.366;12.912;2023-04-19T01:17:08;102410.31;;;5.86;63.96
57668;BME280;43499;52.366;12.912;2023-04-19T01:18:09;102411.63;;;5.90;64.22
57668;BME280;43499;52.366;12.912;2023-04-19T01:19:11;102411.25;;;5.94;63.69
57668;BME280;43499;52.366;12.912;2023-04-19T01:20:12;102404.31;;;5.87;63.60
57668;BME280;43499;52.366;12.912;2023-04-19T01:21:13;102398.72;;;5.84;62.99
57668;BME280;43499;52.366;12.912;2023-04-19T01:22:18;102392.78;;;5.85;63.02
57668;BME280;43499;52.366;12.912;2023-04-19T01:23:19;102410.50;;;5.95;62.90
57668;BME280;43499;52.366;12.912;2023-04-19T01:24:20;102415.53;;;5.93;62.12
57668;BME280;43499;52.366;12.912;2023-04-19T01:25:24;102399.84;;;5.86;63.13
57668;BME280;43499;52.366;12.912;2023-04-19T01:26:26;102408.06;;;5.89;62.53
57668;BME280;43499;52.366;12.912;2023-04-19T01:27:27;102395.72;;;5.81;62.45
57668;BME280;43499;52.366;12.912;2023-04-19T01:28:28;102409.00;;;5.90;62.61
57668;BME280;43499;52.366;12.912;2023-04-19T01:29:29;102411.97;;;5.93;62.76
57668;BME280;43499;52.366;12.912;2023-04-19T01:30:31;102399.09;;;5.87;62.53
57668;BME280;43499;52.366;12.912;2023-04-19T01:31:33;102405.44;;;5.89;62.58
57668;BME280;43499;52.366;12.912;2023-04-19T01:32:34;102410.47;;;5.87;61.93
57668;BME280;43499;52.366;12.912;2023-04-19T01:33:35;102411.63;;;5.90;62.07
57668;BME280;43499;52.366;12.912;2023-04-19T01:34:36;102395.38;;;5.85;61.75
57668;BME280;43499;52.366;12.912;2023-04-19T01:35:38;102395.97;;;5.90;61.40
57668;BME280;43499;52.366;12.912;2023-04-19T01:36:41;102403.41;;;5.94;61.75
57668;BME280;43499;52.366;12.912;2023-04-19T01:37:42;102412.19;;;5.94;61.36
57668;BME280;43499;52.366;12.912;2023-04-19T01:38:44;102414.41;;;5.91;61.45
57668;BME280;43499;52.366;12.912;2023-04-19T01:39:47;102416.09;;;5.91;62.08
57668;BME280;43499;52.366;12.912;2023-04-19T01:40:48;102414.22;;;5.90;61.85
57668;BME280;43499;52.366;12.912;2023-04-19T01:41:49;102407.88;;;5.87;62.00
57668;BME280;43499;52.366;12.912;2023-04-19T01:42:51;102403.72;;;5.82;61.68
57668;BME280;43499;52.366;12.912;2023-04-19T01:43:52;102398.16;;;5.79;61.23
57668;BME280;43499;52.366;12.912;2023-04-19T01:44:53;102399.81;;;5.79;60.92
57668;BME280;43499;52.366;12.912;2023-04-19T01:45:54;102383.56;;;5.74;61.20
57668;BME280;43499;52.366;12.912;2023-04-19T01:46:55;102408.22;;;5.83;61.04
57668;BME280;43499;52.366;12.912;2023-04-19T01:47:56;102402.56;;;5.73;60.74
57668;BME280;43499;52.366;12.912;2023-04-19T01:48:58;102398.16;;;5.79;60.61
57668;BME280;43499;52.366;12.912;2023-04-19T01:49:59;102399.06;;;5.80;61.57
57668;BME280;43499;52.366;12.912;2023-04-19T01:51:00;102409.50;;;5.80;61.84
57668;BME280;43499;52.366;12.912;2023-04-19T01:52:01;102393.44;;;5.77;61.28
57668;BME280;43499;52.366;12.912;2023-04-19T01:53:02;102398.47;;;5.75;60.83
57668;BME280;43499;52.366;12.912;2023-04-19T01:54:03;102390.41;;;5.66;61.48
57668;BME280;43499;52.366;12.912;2023-04-19T01:55:04;102392.28;;;5.67;61.16
57668;BME280;43499;52.366;12.912;2023-04-19T01:56:05;102403.28;;;5.72;61.68
57668;BME280;43499;52.366;12.912;2023-04-19T01:57:06;102386.31;;;5.68;61.68
57668;BME280;43499;52.366;12.912;2023-04-19T01:58:07;102391.53;;;5.68;62.16
57668;BME280;43499;52.366;12.912;2023-04-19T01:59:09;102380.28;;;5.55;61.81
57668;BME280;43499;52.366;12.912;2023-04-19T02:00:11;102388.50;;;5.58;62.26
57668;BME280;43499;52.366;12.912;2023-04-19T02:01:18;102381.81;;;5.60;62.21
57668;BME280;43499;52.366;12.912;2023-04-19T02:02:19;102382.69;;;5.53;61.79
57668;BME280;43499;52.366;12.912;2023-04-19T02:03:20;102401.94;;;5.61;61.18
57668;BME280;43499;52.366;12.912;2023-04-19T02:04:21;102393.88;;;5.52;62.16
57668;BME280;43499;52.366;12.912;2023-04-19T02:05:22;102401.16;;;5.55;61.62
57668;BME280;43499;52.366;12.912;2023-04-19T02:06:23;102385.06;;;5.45;61.92
57668;BME280;43499;52.366;12.912;2023-04-19T02:07:25;102397.38;;;5.46;62.24
57668;BME280;43499;52.366;12.912;2023-04-19T02:08:26;102399.78;;;5.44;62.72
57668;BME280;43499;52.366;12.912;2023-04-19T02:09:27;102393.41;;;5.35;63.42
57668;BME280;43499;52.366;12.912;2023-04-19T02:10:28;102394.31;;;5.35;62.96
57668;BME280;43499;52.366;12.912;2023-04-19T02:11:29;102402.47;;;5.31;63.38
57668;BME280;43499;52.366;12.912;2023-04-19T02:12:33;102403.75;;;5.28;63.34
57668;BME280;43499;52.366;12.912;2023-04-19T02:13:37;102400.53;;;5.23;63.19
57668;BME280;43499;52.366;12.912;2023-04-19T02:14:40;102394.16;;;5.14;63.43
57668;BME280;43499;52.366;12.912;2023-04-19T02:15:43;102392.59;;;5.08;63.92
57668;BME280;43499;52.366;12.912;2023-04-19T02:16:44;102395.94;;;5.07;63.98
57668;BME280;43499;52.366;12.912;2023-04-19T02:17:45;102404.16;;;5.10;64.23
57668;BME280;43499;52.366;12.912;2023-04-19T02:18:47;102385.06;;;4.97;64.77
57668;BME280;43499;52.366;12.912;2023-04-19T02:19:48;102388.41;;;4.96;63.46
57668;BME280;43499;52.366;12.912;2023-04-19T02:20:49;102377.13;;;4.83;64.33
57668;BME280;43499;52.366;12.912;2023-04-19T02:21:51;102398.09;;;4.97;64.34
57668;BME280;43499;52.366;12.912;2023-04-19T02:22:53;102403.31;;;4.97;64.51
57668;BME280;43499;52.366;12.912;2023-04-19T02:23:54;102385.31;;;4.86;64.49
57668;BME280;43499;52.366;12.912;2023-04-19T02:24:55;102392.78;;;4.83;65.32
57668;BME280;43499;52.366;12.912;2023-04-19T02:26:02;102400.03;;;4.85;65.46
57668;BME280;43499;52.366;12.912;2023-04-19T02:27:03;102406.91;;;4.85;65.48
57668;BME280;43499;52.366;12.912;2023-04-19T02:28:06;102380.38;;;4.74;65.81
57668;BME280;43499;52.366;12.912;2023-04-19T02:29:07;102395.28;;;4.75;65.53
57668;BME280;43499;52.366;12.912;2023-04-19T02:30:09;102401.09;;;4.80;66.16
57668;BME280;43499;52.366;12.912;2023-04-19T02:31:10;102384.59;;;4.67;66.02
57668;BME280;43499;52.366;12.912;2023-04-19T02:32:11;102396.00;;;4.74;65.91
57668;BME280;43499;52.366;12.912;2023-04-19T02:33:13;102392.22;;;4.65;66.17
57668;BME280;43499;52.366;12.912;2023-04-19T02:34:14;102379.31;;;4.59;66.57
57668;BME280;43499;52.366;12.912;2023-04-19T02:35:15;102396.50;;;4.65;66.27
57668;BME280;43499;52.366;12.912;2023-04-19T02:36:16;102386.41;;;4.60;66.61
57668;BME280;43499;52.366;12.912;2023-04-19T02:37:17;102379.44;;;4.54;67.08
57668;BME280;43499;52.366;12.912;2023-04-19T02:38:19;102390.28;;;4.57;66.76
57668;BME280;43499;52.366;12.912;2023-04-19T02:39:20;102370.84;;;4.47;66.90
57668;BME280;43499;52.366;12.912;2023-04-19T02:40:21;102401.00;;;4.53;66.88
57668;BME280;43499;52.366;12.912;2023-04-19T02:41:24;102390.94;;;4.48;67.36
57668;BME280;43499;52.366;12.912;2023-04-19T02:42:26;102393.94;;;4.52;66.97
57668;BME280;43499;52.366;12.912;2023-04-19T02:43:27;102400.81;;;4.51;67.61
57668;BME280;43499;52.366;12.912;2023-04-19T02:44:28;102367.34;;;4.34;67.74
57668;BME280;43499;52.366;12.912;2023-04-19T02:45:29;102397.59;;;4.46;67.99
57668;BME280;43499;52.366;12.912;2023-04-19T02:46:31;102389.91;;;4.41;67.93
57668;BME280;43499;52.366;12.912;2023-04-19T02:47:32;102397.91;;;4.42;67.78
57668;BME280;43499;52.366;12.912;2023-04-19T02:48:33;102385.56;;;4.34;68.45
57668;BME280;43499;52.366;12.912;2023-04-19T02:49:34;102378.69;;;4.35;68.32
57668;BME280;43499;52.366;12.912;2023-04-19T02:50:38;102387.75;;;4.31;67.99
57668;BME280;43499;52.366;12.912;2023-04-19T02:51:39;102378.00;;;4.23;68.25
57668;BME280;43499;52.366;12.912;2023-04-19T02:52:40;102380.06;;;4.25;68.58
57668;BME280;43499;52.366;12.912;2023-04-19T02:53:41;102382.47;;;4.24;68.41
57668;BME280;43499;52.366;12.912;2023-04-19T02:54:43;102386.41;;;4.27;68.23
57668;BME280;43499;52.366;12.912;2023-04-19T02:55:44;102399.09;;;4.31;68.60
57668;BME280;43499;52.366;12.912;2023-04-19T02:56:50;102392.53;;;4.28;68.64
57668;BME280;43499;52.366;12.912;2023-04-19T02:57:51;102378.31;;;4.19;68.88
57668;BME280;43499;52.366;12.912;2023-04-19T02:58:52;102394.00;;;4.26;69.08
57668;BME280;43499;52.366;12.912;2023-04-19T02:59:54;102381.44;;;4.16;69.40
57668;BME280;43499;52.366;12.912;2023-04-19T03:00:55;102372.31;;;4.12;69.39
57668;BME280;43499;52.366;12.912;2023-04-19T03:01:57;102359.72;;;4.03;69.33
57668;BME280;43499;52.366;12.912;2023-04-19T03:02:59;102381.75;;;4.12;69.79
57668;BME280;43499;52.366;12.912;2023-04-19T03:04:03;102386.22;;;4.13;69.65
57668;BME280;43499;52.366;12.912;2023-04-19T03:05:04;102390.53;;;4.12;69.63
57668;BME280;43499;52.366;12.912;2023-04-19T03:06:07;102390.81;;;4.08;69.70
57668;BME280;43499;52.366;12.912;2023-04-19T03:07:08;102358.28;;;3.92;69.79
57668;BME280;43499;52.366;12.912;2023-04-19T03:08:10;102359.03;;;3.91;70.10
57668;BME280;43499;52.366;12.912;2023-04-19T03:09:11;102382.59;;;4.05;70.75
57668;BME280;43499;52.366;12.912;2023-04-19T03:10:12;102381.69;;;4.05;70.21
57668;BME280;43499;52.366;12.912;2023-04-19T03:11:16;102385.19;;;4.05;70.90
57668;BME280;43499;52.366;12.912;2023-04-19T03:12:17;102380.34;;;4.01;71.15
57668;BME280;43499;52.366;12.912;2023-04-19T03:13:19;102367.22;;;3.94;70.81
57668;BME280;43499;52.366;12.912;2023-04-19T03:14:20;102371.28;;;3.92;71.00
57668;BME280;43499;52.366;12.912;2023-04-19T03:15:21;102382.09;;;3.95;71.20
57668;BME280;43499;52.366;12.912;2023-04-19T03:16:22;102388.25;;;3.95;71.09
57668;BME280;43499;52.366;12.912;2023-04-19T03:17:23;102388.56;;;3.91;71.32
57668;BME280;43499;52.366;12.912;2023-04-19T03:18:25;102359.44;;;3.81;71.06
57668;BME280;43499;52.366;12.912;2023-04-19T03:19:29;102364.47;;;3.79;71.27
57668;BME280;43499;52.366;12.912;2023-04-19T03:20:30;102376.41;;;3.84;71.36
57668;BME280;43499;52.366;12.912;2023-04-19T03:21:31;102370.78;;;3.81;71.67
57668;BME280;43499;52.366;12.912;2023-04-19T03:22:32;102362.59;;;3.78;71.48
57668;BME280;43499;52.366;12.912;2023-04-19T03:23:34;102375.78;;;3.80;71.48
57668;BME280;43499;52.366;12.912;2023-04-19T03:24:36;102371.84;;;3.76;72.03
57668;BME280;43499;52.366;12.912;2023-04-19T03:25:49;102350.09;;;3.63;72.35
57668;BME280;43499;52.366;12.912;2023-04-19T03:27:09;102371.59;;;3.75;71.74
57668;BME280;43499;52.366;12.912;2023-04-19T03:28:10;102369.13;;;3.69;72.14
57668;BME280;43499;52.366;12.912;2023-04-19T03:29:34;102361.31;;;3.69;72.53
57668;BME280;43499;52.366;12.912;2023-04-19T03:30:42;102345.94;;;3.58;72.83
57668;BME280;43499;52.366;12.912;2023-04-19T03:31:43;102348.34;;;3.56;72.54
57668;BME280;43499;52.366;12.912;2023-04-19T03:32:47;102364.97;;;3.64;73.01
57668;BME280;43499;52.366;12.912;2023-04-19T03:33:48;102342.53;;;3.51;73.06
57668;BME280;43499;52.366;12.912;2023-04-19T03:34:49;102368.31;;;3.63;73.41
57668;BME280;43499;52.366;12.912;2023-04-19T03:35:51;102353.22;;;3.60;73.67
57668;BME280;43499;52.366;12.912;2023-04-19T03:36:52;102351.91;;;3.57;73.46
57668;BME280;43499;52.366;12.912;2023-04-19T03:37:53;102359.88;;;3.58;73.82
57668;BME280;43499;52.366;12.912;2023-04-19T03:38:54;102350.94;;;3.56;73.46
57668;BME280;43499;52.366;12.912;2023-04-19T03:39:56;102337.13;;;3.50;73.52
57668;BME280;43499;52.366;12.912;2023-04-19T03:41:03;102351.03;;;3.50;74.21
57668;BME280;43499;52.366;12.912;2023-04-19T03:42:09;102341.91;;;3.47;74.15
57668;BME280;43499;52.366;12.912;2023-04-19T03:43:30;102338.16;;;3.45;74.07
57668;BME280;43499;52.366;12.912;2023-04-19T03:44:32;102341.47;;;3.44;73.80
57668;BME280;43499;52.366;12.912;2023-04-19T03:45:35;102343.16;;;3.43;74.09
57668;BME280;43499;52.366;12.912;2023-04-19T03:46:37;102343.66;;;3.40;74.16
57668;BME280;43499;52.366;12.912;2023-04-19T03:47:38;102326.81;;;3.31;74.73
57668;BME280;43499;52.366;12.912;2023-04-19T03:48:39;102340.03;;;3.33;74.70
57668;BME280;43499;52.366;12.912;2023-04-19T03:49:40;102324.75;;;3.29;74.64
57668;BME280;43499;52.366;12.912;2023-04-19T03:50:41;102337.63;;;3.34;75.01
57668;BME280;43499;52.366;12.912;2023-04-19T03:51:46;102339.50;;;3.35;74.40
57668;BME280;43499;52.366;12.912;2023-04-19T03:52:47;102342.09;;;3.35;74.77
57668;BME280;43499;52.366;12.912;2023-04-19T03:53:48;102338.47;;;3.28;74.96
57668;BME280;43499;52.366;12.912;2023-04-19T03:54:52;102336.59;;;3.27;75.05
57668;BME280;43499;52.366;12.912;2023-04-19T03:56:10;102328.91;;;3.21;75.14
57668;BME280;43499;52.366;12.912;2023-04-19T03:57:14;102340.34;;;3.29;75.05
57668;BME280;43499;52.366;12.912;2023-04-19T03:58:15;102338.66;;;3.29;75.49
57668;BME280;43499;52.366;12.912;2023-04-19T03:59:25;102342.75;;;3.27;75.35
57668;BME280;43499;52.366;12.912;2023-04-19T04:00:26;102336.50;;;3.19;75.95
57668;BME280;43499;52.366;12.912;2023-04-19T04:01:32;102330.66;;;3.15;75.97
57668;BME280;43499;52.366;12.912;2023-04-19T04:02:36;102341.59;;;3.25;76.20
57668;BME280;43499;52.366;12.912;2023-04-19T04:03:40;102342.19;;;3.17;76.38
57668;BME280;43499;52.366;12.912;2023-04-19T04:04:41;102338.13;;;3.19;76.59
57668;BME280;43499;52.366;12.912;2023-04-19T04:05:42;102337.22;;;3.18;76.56
57668;BME280;43499;52.366;12.912;2023-04-19T04:06:44;102345.22;;;3.20;76.71
57668;BME280;43499;52.366;12.912;2023-04-19T04:07:46;102329.63;;;3.07;76.67
57668;BME280;43499;52.366;12.912;2023-04-19T04:08:47;102323.47;;;3.06;76.58
57668;BME280;43499;52.366;12.912;2023-04-19T04:09:48;102350.94;;;3.17;76.66
57668;BME280;43499;52.366;12.912;2023-04-19T04:10:50;102313.16;;;3.01;76.44
57668;BME280;43499;52.366;12.912;2023-04-19T04:11:51;102347.59;;;3.18;76.49
57668;BME280;43499;52.366;12.912;2023-04-19T04:12:52;102333.03;;;3.13;77.03
57668;BME280;43499;52.366;12.912;2023-04-19T04:13:59;102347.81;;;3.20;76.55
57668;BME280;43499;52.366;12.912;2023-04-19T04:15:05;102341.69;;;3.19;76.76
57668;BME280;43499;52.366;12.912;2023-04-19T04:16:06;102343.84;;;3.16;77.07
57668;BME280;43499;52.366;12.912;2023-04-19T04:17:08;102341.06;;;3.15;77.19
57668;BME280;43499;52.366;12.912;2023-04-19T04:18:09;102345.72;;;3.17;77.56
57668;BME280;43499;52.366;12.912;2023-04-19T04:19:11;102337.50;;;3.14;77.67
57668;BME280;43499;52.366;12.912;2023-04-19T04:20:15;102317.44;;;3.00;77.29
57668;BME280;43499;52.366;12.912;2023-04-19T04:21:16;102345.53;;;3.16;77.55
57668;BME280;43499;52.366;12.912;2023-04-19T04:22:20;102343.13;;;3.17;77.50
57668;BME280;43499;52.366;12.912;2023-04-19T04:23:21;102346.66;;;3.18;77.61
57668;BME280;43499;52.366;12.912;2023-04-19T04:24:23;102328.66;;;3.06;77.53
57668;BME280;43499;52.366;12.912;2023-04-19T04:25:37;102348.31;;;3.30;78.01
57668;BME280;43499;52.366;12.912;2023-04-19T04:26:42;102330.56;;;3.33;77.65
57668;BME280;43499;52.366;12.912;2023-04-19T04:27:52;102339.81;;;3.57;76.36
57668;BME280;43499;52.366;12.912;2023-04-19T04:28:57;102348.19;;;3.75;75.92
57668;BME280;43499;52.366;12.912;2023-04-19T04:29:59;102346.53;;;3.88;75.74
57668;BME280;43499;52.366;12.912;2023-04-19T04:31:01;102337.69;;;3.93;75.04
57668;BME280;43499;52.366;12.912;2023-04-19T04:32:06;102356.69;;;4.12;75.13
57668;BME280;43499;52.366;12.912;2023-04-19T04:33:12;102350.75;;;4.13;74.25
57668;BME280;43499;52.366;12.912;2023-04-19T04:34:16;102345.94;;;4.16;74.46
57668;BME280;43499;52.366;12.912;2023-04-19T04:35:24;102331.53;;;4.26;74.08
57668;BME280;43499;52.366;12.912;2023-04-19T04:36:31;102325.41;;;4.25;74.07
57668;BME280;43499;52.366;12.912;2023-04-19T04:37:34;102341.78;;;4.44;73.91
57668;BME280;43499;52.366;12.912;2023-04-19T04:38:35;102346.00;;;4.57;73.08
57668;BME280;43499;52.366;12.912;2023-04-19T04:39:38;102336.91;;;4.60;72.78
57668;BME280;43499;52.366;12.912;2023-04-19T04:40:40;102336.25;;;4.69;72.93
57668;BME280;43499;52.366;12.912;2023-04-19T04:41:42;102337.66;;;4.79;72.60
57668;BME280;43499;52.366;12.912;2023-04-19T04:42:43;102336.19;;;4.82;71.98
57668;BME280;43499;52.366;12.912;2023-04-19T04:43:45;102333.72;;;4.76;72.46
57668;BME280;43499;52.366;12.912;2023-04-19T04:44:49;102348.63;;;4.77;72.87
57668;BME280;43499;52.366;12.912;2023-04-19T04:45:51;102343.72;;;4.73;72.80
57668;BME280;43499;52.366;12.912;2023-04-19T04:46:52;102331.16;;;4.63;73.15
57668;BME280;43499;52.366;12.912;2023-04-19T04:47:58;102340.66;;;4.62;73.12
57668;BME280;43499;52.366;12.912;2023-04-19T04:49:00;102349.88;;;4.53;73.30
57668;BME280;43499;52.366;12.912;2023-04-19T04:50:02;102334.84;;;4.38;74.22
57668;BME280;43499;52.366;12.912;2023-04-19T04:51:04;102340.16;;;4.32;74.78
57668;BME280;43499;52.366;12.912;2023-04-19T04:52:06;102336.41;;;4.30;75.41
57668;BME280;43499;52.366;12.912;2023-04-19T04:53:13;102332.91;;;4.16;75.26
57668;BME280;43499;52.366;12.912;2023-04-19T04:54:16;102335.63;;;4.24;75.56
57668;BME280;43499;52.366;12.912;2023-04-19T04:55:18;102340.72;;;4.29;75.70
57668;BME280;43499;52.366;12.912;2023-04-19T04:56:19;102342.34;;;4.29;75.80
57668;BME280;43499;52.366;12.912;2023-04-19T04:57:20;102344.03;;;4.28;75.65
57668;BME280;43499;52.366;12.912;2023-04-19T04:58:21;102337.28;;;4.23;76.50
57668;BME280;43499;52.366;12.912;2023-04-19T04:59:33;102325.94;;;4.23;75.43
57668;BME280;43499;52.366;12.912;2023-04-19T05:00:34;102312.94;;;4.23;75.57
57668;BME280;43499;52.366;12.912;2023-04-19T05:01:41;102335.13;;;4.46;75.27
57668;BME280;43499;52.366;12.912;2023-04-19T05:02:42;102323.97;;;4.47;75.37
57668;BME280;43499;52.366;12.912;2023-04-19T05:03:44;102339.84;;;4.76;74.68
57668;BME280;43499;52.366;12.912;2023-04-19T05:04:50;102336.28;;;4.96;74.25
57668;BME280;43499;52.366;12.912;2023-04-19T05:05:51;102332.19;;;5.18;73.35
57668;BME280;43499;52.366;12.912;2023-04-19T05:06:52;102329.88;;;5.41;72.44
57668;BME280;43499;52.366;12.912;2023-04-19T05:07:58;102333.25;;;5.75;71.08
57668;BME280;43499;52.366;12.912;2023-04-19T05:08:59;102328.28;;;5.91;70.71
57668;BME280;43499;52.366;12.912;2023-04-19T05:10:07;102326.16;;;6.09;70.12
57668;BME280;43499;52.366;12.912;2023-04-19T05:11:17;102332.19;;;6.29;69.19
57668;BME280;43499;52.366;12.912;2023-04-19T05:12:18;102311.28;;;6.37;68.69
57668;BME280;43499;52.366;12.912;2023-04-19T05:13:19;102319.72;;;6.56;68.49
57668;BME280;43499;52.366;12.912;2023-04-19T05:14:21;102304.06;;;6.70;67.66
57668;BME280;43499;52.366;12.912;2023-04-19T05:15:22;102321.97;;;6.89;66.46
57668;BME280;43499;52.366;12.912;2023-04-19T05:16:26;102317.28;;;6.93;66.96
57668;BME280;43499;52.366;12.912;2023-04-19T05:17:27;102295.47;;;6.93;66.21
57668;BME280;43499;52.366;12.912;2023-04-19T05:18:28;102307.38;;;7.13;66.15
57668;BME280;43499;52.366;12.912;2023-04-19T05:19:30;102313.53;;;7.20;65.67
57668;BME280;43499;52.366;12.912;2023-04-19T05:20:37;102299.88;;;7.23;65.56
57668;BME280;43499;52.366;12.912;2023-04-19T05:21:45;102315.19;;;7.34;65.25
57668;BME280;43499;52.366;12.912;2023-04-19T05:22:47;102313.47;;;7.49;65.02
57668;BME280;43499;52.366;12.912;2023-04-19T05:23:48;102297.41;;;7.46;64.37
57668;BME280;43499;52.366;12.912;2023-04-19T05:24:49;102316.19;;;7.72;63.80
57668;BME280;43499;52.366;12.912;2023-04-19T05:25:52;102307.22;;;7.70;63.79